createdAt,value
2019-01-08T00:01:02.996Z,9.12
2019-01-08T00:03:31.470Z,9.13
2019-01-08T00:05:59.892Z,9.15
2019-01-08T00:08:28.346Z,9.17
2019-01-08T00:10:56.791Z,9.18
2019-01-08T00:13:25.324Z,9.20
2019-01-08T00:15:53.853Z,9.20
2019-01-08T00:18:22.393Z,9.21
2019-01-08T00:20:50.821Z,9.22
2019-01-08T00:23:19.268Z,9.22
2019-01-08T00:25:47.719Z,9.12
2019-01-08T00:28:16.226Z,8.86
2019-01-08T00:30:44.755Z,8.69
2019-01-08T00:33:13.199Z,8.50
2019-01-08T00:35:41.663Z,8.38
2019-01-08T00:38:10.152Z,8.34
2019-01-08T00:40:38.563Z,8.33
2019-01-08T00:43:07.082Z,8.37
2019-01-08T00:45:35.618Z,8.43
2019-01-08T00:48:04.052Z,8.45
2019-01-08T00:50:32.488Z,8.47
2019-01-08T00:53:00.977Z,8.46
2019-01-08T00:55:29.570Z,8.46
2019-01-08T00:57:57.988Z,8.45
2019-01-08T01:00:26.492Z,8.44
2019-01-08T01:02:55.080Z,8.44
2019-01-08T01:05:23.510Z,8.42
2019-01-08T01:07:51.964Z,8.41
2019-01-08T01:10:20.416Z,8.41
2019-01-08T01:12:48.852Z,8.36
2019-01-08T01:15:17.381Z,8.28
2019-01-08T01:17:45.875Z,8.23
2019-01-08T01:20:14.327Z,8.19
2019-01-08T01:22:42.741Z,8.14
2019-01-08T01:25:11.163Z,8.13
2019-01-08T01:27:39.592Z,8.10
2019-01-08T01:30:08.666Z,8.07
2019-01-08T01:32:37.118Z,8.04
2019-01-08T01:35:05.754Z,8.03
2019-01-08T01:37:34.267Z,8.06
2019-01-08T01:40:03.072Z,8.10
2019-01-08T01:42:31.533Z,8.09
2019-01-08T01:45:00.040Z,8.11
2019-01-08T01:47:31.723Z,8.09
2019-01-08T01:50:00.318Z,8.08
2019-01-08T01:52:28.801Z,8.02
2019-01-08T01:54:57.216Z,7.99
2019-01-08T01:57:25.689Z,7.95
2019-01-08T01:59:54.113Z,7.92
2019-01-08T02:02:22.569Z,7.90
2019-01-08T02:04:51.022Z,7.87
2019-01-08T02:07:19.440Z,7.87
2019-01-08T02:09:47.900Z,7.85
2019-01-08T02:12:16.310Z,7.84
2019-01-08T02:14:44.776Z,7.80
2019-01-08T02:17:13.201Z,7.77
2019-01-08T02:19:41.671Z,7.74
2019-01-08T02:22:10.081Z,7.73
2019-01-08T02:24:38.527Z,7.70
2019-01-08T02:27:07.020Z,7.68
2019-01-08T02:29:35.488Z,7.65
2019-01-08T02:32:04.027Z,7.64
2019-01-08T02:34:32.555Z,7.61
2019-01-08T02:37:01.029Z,7.60
2019-01-08T02:39:29.616Z,7.58
2019-01-08T02:41:58.181Z,7.56
2019-01-08T02:44:26.713Z,7.57
2019-01-08T02:46:55.115Z,7.57
2019-01-08T02:49:23.704Z,7.57
2019-01-08T02:51:52.112Z,7.58
2019-01-08T02:54:20.665Z,7.59
2019-01-08T02:56:49.064Z,7.60
2019-01-08T02:59:24.923Z,7.59
2019-01-08T03:01:47.676Z,7.56
2019-01-08T03:04:16.081Z,7.54
2019-01-08T03:06:44.532Z,7.52
2019-01-08T03:09:12.959Z,7.49
2019-01-08T03:11:41.403Z,7.47
2019-01-08T03:14:09.893Z,7.45
2019-01-08T03:16:38.345Z,7.44
2019-01-08T03:19:06.864Z,7.42
2019-01-08T03:21:35.331Z,7.39
2019-01-08T03:24:03.835Z,7.38
2019-01-08T03:26:32.306Z,7.36
2019-01-08T03:29:00.722Z,7.34
2019-01-08T03:31:29.167Z,7.33
2019-01-08T03:33:57.592Z,7.31
2019-01-08T03:36:26.034Z,7.29
2019-01-08T03:38:54.452Z,7.27
2019-01-08T03:41:22.970Z,7.25
2019-01-08T03:43:51.549Z,7.24
2019-01-08T03:46:20.009Z,7.21
2019-01-08T03:48:48.503Z,7.19
2019-01-08T03:51:17.105Z,7.18
2019-01-08T03:53:45.566Z,7.16
2019-01-08T03:56:14.069Z,7.14
2019-01-08T03:58:42.538Z,7.13
2019-01-08T04:01:11.045Z,7.10
2019-01-08T04:03:39.487Z,7.10
2019-01-08T04:06:07.903Z,7.08
2019-01-08T04:08:36.362Z,7.08
2019-01-08T04:11:04.855Z,7.05
2019-01-08T04:13:33.280Z,7.04
2019-01-08T04:16:01.702Z,7.03
2019-01-08T04:18:30.187Z,7.01
2019-01-08T04:20:58.605Z,7.02
2019-01-08T04:23:27.046Z,6.99
2019-01-08T04:25:55.470Z,6.99
2019-01-08T04:28:23.937Z,6.98
2019-01-08T04:30:52.427Z,6.97
2019-01-08T04:33:20.882Z,6.96
2019-01-08T04:35:49.374Z,6.95
2019-01-08T04:38:17.845Z,6.93
2019-01-08T04:40:46.337Z,6.93
2019-01-08T04:43:14.766Z,6.92
2019-01-08T04:45:43.211Z,6.91
2019-01-08T04:48:11.626Z,6.92
2019-01-08T04:50:40.077Z,6.91
2019-01-08T04:53:08.498Z,6.90
2019-01-08T04:55:36.948Z,6.90
2019-01-08T04:58:05.510Z,6.92
2019-01-08T05:00:34.037Z,6.96
2019-01-08T05:03:02.625Z,6.96
2019-01-08T05:05:31.130Z,6.94
2019-01-08T05:07:59.628Z,6.93
2019-01-08T05:10:28.216Z,6.92
2019-01-08T05:12:56.721Z,6.92
2019-01-08T05:15:25.178Z,6.93
2019-01-08T05:17:53.587Z,6.90
2019-01-08T05:20:22.095Z,6.85
2019-01-08T05:22:50.515Z,6.85
2019-01-08T05:25:19.102Z,6.83
2019-01-08T05:27:47.552Z,6.82
2019-01-08T05:30:15.981Z,6.82
2019-01-08T05:32:44.467Z,6.79
2019-01-08T05:35:12.900Z,6.77
2019-01-08T05:37:41.406Z,6.76
2019-01-08T05:40:09.824Z,6.75
2019-01-08T05:42:38.282Z,6.75
2019-01-08T05:45:06.882Z,6.74
2019-01-08T05:47:35.331Z,6.74
2019-01-08T05:50:03.932Z,6.74
2019-01-08T05:52:32.445Z,6.75
2019-01-08T05:55:00.881Z,6.77
2019-01-08T05:57:29.409Z,6.77
2019-01-08T05:59:57.847Z,6.78
2019-01-08T06:02:26.277Z,6.76
2019-01-08T06:04:54.747Z,6.73
2019-01-08T06:07:23.280Z,6.71
2019-01-08T06:09:51.790Z,6.71
2019-01-08T06:12:20.393Z,6.70
2019-01-08T06:14:48.872Z,6.71
2019-01-08T06:17:17.299Z,6.69
2019-01-08T06:19:45.790Z,6.69
2019-01-08T06:22:14.218Z,6.70
2019-01-08T06:24:42.664Z,6.75
2019-01-08T06:27:11.080Z,6.77
2019-01-08T06:29:39.536Z,6.80
2019-01-08T06:32:07.988Z,6.83
2019-01-08T06:34:36.429Z,6.86
2019-01-08T06:37:04.909Z,6.88
2019-01-08T06:39:33.352Z,6.85
2019-01-08T06:42:01.782Z,6.85
2019-01-08T06:44:30.228Z,6.90
2019-01-08T06:46:58.639Z,6.94
2019-01-08T06:49:27.099Z,6.96
2019-01-08T06:51:55.536Z,6.95
2019-01-08T06:54:23.994Z,6.94
2019-01-08T06:56:52.442Z,6.93
2019-01-08T06:59:20.888Z,6.96
2019-01-08T07:01:49.369Z,6.99
2019-01-08T07:04:17.789Z,7.02
2019-01-08T07:06:46.246Z,7.04
2019-01-08T07:09:14.697Z,7.06
2019-01-08T07:11:43.159Z,7.07
2019-01-08T07:14:11.561Z,7.08
2019-01-08T07:16:40.090Z,7.09
2019-01-08T07:19:08.489Z,7.07
2019-01-08T07:21:36.944Z,7.04
2019-01-08T07:24:05.353Z,7.04
2019-01-08T07:26:33.874Z,7.06
2019-01-08T07:29:02.294Z,7.03
2019-01-08T07:31:30.798Z,6.99
2019-01-08T07:33:59.886Z,6.98
2019-01-08T07:36:29.003Z,6.95
2019-01-08T07:38:57.405Z,6.95
2019-01-08T07:41:25.845Z,6.97
2019-01-08T07:43:54.276Z,6.98
2019-01-08T07:46:22.704Z,7.00
2019-01-08T07:48:51.131Z,6.99
2019-01-08T07:51:19.617Z,7.00
2019-01-08T07:53:48.059Z,6.99
2019-01-08T07:56:16.468Z,6.99
2019-01-08T07:58:44.979Z,6.99
2019-01-08T08:01:13.457Z,6.99
2019-01-08T08:03:41.907Z,6.96
2019-01-08T08:06:10.344Z,6.96
2019-01-08T08:08:38.798Z,6.89
2019-01-08T08:11:07.227Z,6.87
2019-01-08T08:13:35.742Z,6.82
2019-01-08T08:16:04.236Z,6.80
2019-01-08T08:18:32.689Z,6.78
2019-01-08T08:21:01.104Z,6.73
2019-01-08T08:23:29.559Z,6.73
2019-01-08T08:25:58.053Z,6.75
2019-01-08T08:28:26.518Z,6.78
2019-01-08T08:30:58.919Z,6.81
2019-01-08T08:33:25.106Z,6.89
2019-01-08T08:35:53.616Z,6.92
2019-01-08T08:38:22.161Z,6.92
2019-01-08T08:40:50.566Z,6.94
2019-01-08T08:43:18.994Z,6.97
2019-01-08T08:45:47.908Z,7.04
2019-01-08T08:48:16.323Z,7.10
2019-01-08T08:50:45.116Z,7.15
2019-01-08T08:53:13.804Z,7.16
2019-01-08T08:55:42.252Z,7.16
2019-01-08T08:58:10.666Z,7.18
2019-01-08T09:00:39.142Z,7.17
2019-01-08T09:03:07.560Z,7.13
2019-01-08T09:05:36.005Z,7.13
2019-01-08T09:08:04.457Z,7.11
2019-01-08T09:10:32.997Z,7.09
2019-01-08T09:13:01.445Z,7.04
2019-01-08T09:15:30.067Z,6.99
2019-01-08T09:17:58.526Z,6.98
2019-01-08T09:20:27.033Z,7.00
2019-01-08T09:22:55.410Z,7.04
2019-01-08T09:25:23.833Z,7.03
2019-01-08T09:27:52.300Z,7.05
2019-01-08T09:30:20.736Z,7.10
2019-01-08T09:32:49.208Z,7.09
2019-01-08T09:35:17.677Z,7.10
2019-01-08T09:37:46.104Z,7.11
2019-01-08T09:40:14.594Z,7.11
2019-01-08T09:42:43.034Z,7.11
2019-01-08T09:45:11.525Z,7.10
2019-01-08T09:47:39.999Z,7.14
2019-01-08T09:50:09.053Z,7.22
2019-01-08T09:52:37.506Z,7.25
2019-01-08T09:55:06.367Z,7.25
2019-01-08T09:57:34.818Z,7.31
2019-01-08T10:00:03.811Z,7.38
2019-01-08T10:02:32.257Z,7.46
2019-01-08T10:05:00.829Z,7.51
2019-01-08T10:07:29.286Z,7.54
2019-01-08T10:09:57.799Z,7.54
2019-01-08T10:12:26.252Z,7.55
2019-01-08T10:14:54.746Z,7.56
2019-01-08T10:17:23.233Z,7.58
2019-01-08T10:19:51.927Z,7.60
2019-01-08T10:22:20.613Z,7.59
2019-01-08T10:24:49.196Z,7.60
2019-01-08T10:27:17.620Z,7.60
2019-01-08T10:29:46.065Z,7.62
2019-01-08T10:32:14.498Z,7.62
2019-01-08T10:34:43.106Z,7.64
2019-01-08T10:37:11.524Z,7.67
2019-01-08T10:39:39.972Z,7.71
2019-01-08T10:42:08.490Z,7.69
2019-01-08T10:44:36.931Z,7.70
2019-01-08T10:47:05.410Z,7.74
2019-01-08T10:49:33.864Z,7.77
2019-01-08T10:52:02.503Z,7.76
2019-01-08T10:54:31.484Z,7.75
2019-01-08T10:57:00.474Z,7.75
2019-01-08T10:59:28.961Z,7.74
2019-01-08T11:01:57.440Z,7.74
2019-01-08T11:04:25.949Z,7.78
2019-01-08T11:06:54.733Z,7.80
2019-01-08T11:09:23.262Z,7.83
2019-01-08T11:11:51.978Z,7.86
2019-01-08T11:14:20.434Z,7.88
2019-01-08T11:16:50.519Z,7.93
2019-01-08T11:19:19.796Z,7.97
2019-01-08T11:21:48.238Z,8.03
2019-01-08T11:24:16.687Z,8.06
2019-01-08T11:26:45.753Z,8.10
2019-01-08T11:29:14.264Z,8.19
2019-01-08T11:31:48.766Z,8.30
2019-01-08T11:34:12.864Z,8.48
2019-01-08T11:36:41.331Z,8.60
2019-01-08T11:39:10.714Z,8.62
2019-01-08T11:41:39.289Z,8.66
2019-01-08T11:44:07.745Z,8.65
2019-01-08T11:46:36.190Z,8.64
2019-01-08T11:49:05.607Z,8.58
2019-01-08T11:51:34.121Z,8.58
2019-01-08T11:54:02.642Z,8.57
2019-01-08T11:56:31.212Z,8.52
2019-01-08T11:58:59.693Z,8.50
2019-01-08T12:01:28.238Z,8.42
2019-01-08T12:03:56.839Z,8.43
2019-01-08T12:06:25.301Z,8.53
2019-01-08T12:08:53.831Z,8.57
2019-01-08T12:11:22.284Z,8.92
2019-01-08T12:13:50.730Z,9.18
2019-01-08T12:16:19.291Z,9.48
2019-01-08T12:18:47.745Z,9.79
2019-01-08T12:21:16.269Z,9.68
2019-01-08T12:23:44.888Z,9.46
2019-01-08T12:26:13.428Z,9.30
2019-01-08T12:28:42.009Z,9.30
2019-01-08T12:31:10.407Z,9.57
2019-01-08T12:33:38.912Z,9.90
2019-01-08T12:36:07.473Z,9.60
2019-01-08T12:38:36.020Z,9.38
2019-01-08T12:41:04.451Z,9.15
2019-01-08T12:43:33.025Z,9.01
2019-01-08T12:46:01.550Z,9.07
2019-01-08T12:48:29.981Z,9.07
2019-01-08T12:50:58.968Z,9.16
2019-01-08T12:53:27.412Z,9.15
2019-01-08T12:55:56.129Z,9.10
2019-01-08T12:58:24.636Z,8.92
2019-01-08T13:00:53.085Z,8.64
2019-01-08T13:03:21.604Z,8.47
2019-01-08T13:05:50.082Z,8.52
2019-01-08T13:08:18.650Z,8.67
2019-01-08T13:10:47.289Z,9.08
2019-01-08T13:13:16.804Z,9.25
2019-01-08T13:15:45.346Z,9.38
2019-01-08T13:18:13.780Z,9.25
2019-01-08T13:20:42.232Z,9.09
2019-01-08T13:23:10.733Z,8.93
2019-01-08T13:25:39.276Z,8.81
2019-01-08T13:28:07.879Z,8.58
2019-01-08T13:30:36.451Z,8.54
2019-01-08T13:33:04.940Z,8.63
2019-01-08T13:35:33.397Z,8.84
2019-01-08T13:38:01.832Z,9.26
2019-01-08T13:40:30.440Z,9.37
2019-01-08T13:42:59.047Z,9.27
2019-01-08T13:45:27.595Z,9.27
2019-01-08T13:47:56.181Z,9.18
2019-01-08T13:50:25.104Z,9.12
2019-01-08T13:52:53.549Z,9.03
2019-01-08T13:55:23.228Z,9.00
2019-01-08T13:57:51.757Z,8.95
2019-01-08T14:00:20.166Z,8.91
2019-01-08T14:02:49.225Z,8.84
2019-01-08T14:05:17.711Z,8.58
2019-01-08T14:07:46.183Z,8.38
2019-01-08T14:10:14.657Z,8.27
2019-01-08T14:12:43.439Z,8.20
2019-01-08T14:15:12.002Z,8.14
2019-01-08T14:17:40.577Z,8.10
2019-01-08T14:20:09.270Z,8.08
2019-01-08T14:22:37.872Z,8.07
2019-01-08T14:25:06.533Z,8.06
2019-01-08T14:27:35.114Z,8.08
2019-01-08T14:30:04.951Z,8.06
2019-01-08T14:32:40.584Z,8.10
2019-01-08T14:35:04.447Z,8.16
2019-01-08T14:37:33.337Z,8.25
2019-01-08T14:40:01.908Z,8.30
2019-01-08T14:42:30.472Z,8.32
2019-01-08T14:44:58.981Z,8.37
2019-01-08T14:47:28.620Z,8.38
2019-01-08T14:49:57.145Z,8.34
2019-01-08T14:52:25.762Z,8.27
2019-01-08T14:54:54.263Z,8.21
2019-01-08T14:57:22.868Z,8.18
2019-01-08T14:59:52.863Z,8.15
2019-01-08T15:02:22.698Z,8.13
2019-01-08T15:04:51.144Z,8.13
2019-01-08T15:07:20.146Z,8.12
2019-01-08T15:09:48.708Z,8.09
2019-01-08T15:12:18.242Z,8.08
2019-01-08T15:14:46.827Z,8.06
2019-01-08T15:17:15.391Z,8.02
2019-01-08T15:19:43.901Z,8.02
2019-01-08T15:22:12.399Z,8.00
2019-01-08T15:24:40.922Z,7.99
2019-01-08T15:27:09.519Z,7.93
2019-01-08T15:29:38.111Z,7.92
2019-01-08T15:32:06.744Z,7.91
2019-01-08T15:34:35.338Z,7.90
2019-01-08T15:37:03.960Z,7.82
2019-01-08T15:39:33.211Z,7.78
2019-01-08T15:42:01.769Z,7.72
2019-01-08T15:44:30.249Z,7.69
2019-01-08T15:46:58.897Z,7.67
2019-01-08T15:49:27.392Z,7.67
2019-01-08T15:51:57.503Z,7.71
2019-01-08T15:54:25.946Z,7.67
2019-01-08T15:56:54.475Z,7.54
2019-01-08T15:59:22.892Z,7.37
2019-01-08T16:01:51.430Z,7.31
2019-01-08T16:04:20.008Z,7.29
2019-01-08T16:06:48.664Z,7.27
2019-01-08T16:09:17.725Z,7.27
2019-01-08T16:11:47.132Z,7.27
2019-01-08T16:14:15.668Z,7.28
2019-01-08T16:16:44.114Z,7.32
2019-01-08T16:19:12.586Z,7.33
2019-01-08T16:21:41.102Z,7.31
2019-01-08T16:24:09.521Z,7.29
2019-01-08T16:26:38.183Z,7.27
2019-01-08T16:29:07.092Z,7.26
2019-01-08T16:31:35.682Z,7.26
2019-01-08T16:34:04.155Z,7.31
2019-01-08T16:36:32.694Z,7.36
2019-01-08T16:39:01.258Z,7.38
2019-01-08T16:41:29.747Z,7.39
2019-01-08T16:43:58.281Z,7.42
2019-01-08T16:46:26.703Z,7.44
2019-01-08T16:48:55.180Z,7.46
2019-01-08T16:51:23.578Z,7.46
2019-01-08T16:53:52.172Z,7.45
2019-01-08T16:56:20.756Z,7.45
2019-01-08T16:58:49.335Z,7.47
2019-01-08T17:01:17.841Z,7.48
2019-01-08T17:03:46.459Z,7.49
2019-01-08T17:06:14.986Z,7.49
2019-01-08T17:08:43.572Z,7.48
2019-01-08T17:11:11.982Z,7.48
2019-01-08T17:13:40.449Z,7.47
2019-01-08T17:16:08.934Z,7.46
2019-01-08T17:18:37.397Z,7.45
2019-01-08T17:21:05.912Z,7.42
2019-01-08T17:23:34.507Z,7.42
2019-01-08T17:26:03.044Z,7.43
2019-01-08T17:28:31.513Z,7.44
2019-01-08T17:31:00.019Z,7.45
2019-01-08T17:33:33.773Z,7.43
2019-01-08T17:35:58.737Z,7.43
2019-01-08T17:38:27.965Z,7.44
2019-01-08T17:40:56.451Z,7.45
2019-01-08T17:43:33.243Z,7.46
2019-01-08T17:45:55.046Z,7.45
2019-01-08T17:48:23.708Z,7.47
2019-01-08T17:50:52.177Z,7.48
2019-01-08T17:53:20.603Z,7.47
2019-01-08T17:55:49.192Z,7.47
2019-01-08T17:58:35.567Z,7.46
2019-01-08T18:01:07.400Z,7.45
2019-01-08T18:03:42.622Z,7.47
2019-01-08T18:06:06.186Z,7.46
2019-01-08T18:08:34.716Z,7.46
2019-01-08T18:11:03.249Z,7.45
2019-01-08T18:13:31.694Z,7.40
2019-01-08T18:16:00.216Z,7.40
2019-01-08T18:18:28.650Z,7.37
2019-01-08T18:20:57.161Z,7.39
2019-01-08T18:23:25.706Z,7.36
2019-01-08T18:25:54.125Z,7.32
2019-01-08T18:28:22.669Z,7.28
2019-01-08T18:30:51.331Z,7.26
2019-01-08T18:33:20.292Z,7.24
2019-01-08T18:35:48.714Z,7.26
2019-01-08T18:38:18.193Z,7.26
2019-01-08T18:40:46.687Z,7.27
2019-01-08T18:43:15.155Z,7.26
2019-01-08T18:45:43.661Z,7.24
2019-01-08T18:48:12.140Z,7.22
2019-01-08T18:50:40.654Z,7.20
2019-01-08T18:53:09.111Z,7.20
2019-01-08T18:55:37.572Z,7.19
2019-01-08T18:58:05.982Z,7.18
2019-01-08T19:00:34.401Z,7.17
2019-01-08T19:03:02.839Z,7.14
2019-01-08T19:05:31.265Z,7.11
2019-01-08T19:07:59.902Z,7.10
2019-01-08T19:10:28.322Z,7.11
2019-01-08T19:12:56.966Z,7.08
2019-01-08T19:15:25.551Z,7.03
2019-01-08T19:17:53.981Z,7.00
2019-01-08T19:20:22.660Z,6.96
2019-01-08T19:22:51.177Z,6.93
2019-01-08T19:25:19.804Z,6.92
2019-01-08T19:27:48.294Z,6.90
2019-01-08T19:30:16.771Z,6.90
2019-01-08T19:32:45.233Z,6.90
2019-01-08T19:35:13.865Z,6.89
2019-01-08T19:37:42.370Z,6.88
2019-01-08T19:40:11.112Z,6.90
2019-01-08T19:42:39.620Z,6.91
2019-01-08T19:45:08.630Z,6.94
2019-01-08T19:47:37.146Z,6.95
2019-01-08T19:50:07.678Z,6.96
2019-01-08T19:52:36.283Z,6.96
2019-01-08T19:55:05.061Z,6.96
2019-01-08T19:57:36.517Z,6.95
2019-01-08T20:00:07.393Z,6.95
2019-01-08T20:02:35.940Z,6.97
2019-01-08T20:05:04.771Z,7.00
2019-01-08T20:07:33.570Z,7.01
2019-01-08T20:10:02.024Z,7.04
2019-01-08T20:12:30.574Z,7.04
2019-01-08T20:14:59.061Z,7.00
2019-01-08T20:17:27.534Z,6.98
2019-01-08T20:19:56.024Z,6.97
2019-01-08T20:22:24.533Z,6.99
2019-01-08T20:24:52.990Z,7.00
2019-01-08T20:27:21.514Z,7.00
2019-01-08T20:29:49.972Z,6.93
2019-01-08T20:32:18.489Z,6.89
2019-01-08T20:34:48.637Z,6.87
2019-01-08T20:37:17.149Z,6.85
2019-01-08T20:39:45.571Z,6.84
2019-01-08T20:42:14.030Z,6.84
2019-01-08T20:44:42.618Z,6.83
2019-01-08T20:47:11.076Z,6.84
2019-01-08T20:49:39.565Z,6.84
2019-01-08T20:52:07.987Z,6.83
2019-01-08T20:54:36.507Z,6.76
2019-01-08T20:57:09.187Z,6.72
2019-01-08T20:59:35.341Z,6.69
2019-01-08T21:02:03.758Z,6.67
2019-01-08T21:04:35.580Z,6.65
2019-01-08T21:07:02.359Z,6.65
2019-01-08T21:09:30.883Z,6.64
2019-01-08T21:11:59.452Z,6.61
2019-01-08T21:14:27.957Z,6.54
2019-01-08T21:16:56.383Z,6.41
2019-01-08T21:19:24.908Z,6.33
2019-01-08T21:21:53.328Z,6.26
2019-01-08T21:24:28.434Z,6.21
2019-01-08T21:26:52.119Z,6.21
2019-01-08T21:29:20.719Z,6.24
2019-01-08T21:31:49.223Z,6.29
2019-01-08T21:34:17.871Z,6.30
2019-01-08T21:36:46.349Z,6.30
2019-01-08T21:39:14.835Z,6.28
2019-01-08T21:41:43.300Z,6.30
2019-01-08T21:44:11.814Z,6.29
2019-01-08T21:46:40.324Z,6.26
2019-01-08T21:49:08.745Z,6.27
2019-01-08T21:51:37.224Z,6.27
2019-01-08T21:54:05.706Z,6.32
2019-01-08T21:56:34.951Z,6.31
2019-01-08T21:59:03.450Z,6.27
2019-01-08T22:01:32.154Z,6.26
2019-01-08T22:04:00.698Z,6.27
2019-01-08T22:06:29.678Z,6.31
2019-01-08T22:08:58.183Z,6.33
2019-01-08T22:11:26.861Z,6.33
2019-01-08T22:13:55.313Z,6.37
2019-01-08T22:16:23.759Z,6.36
2019-01-08T22:18:52.385Z,6.37
2019-01-08T22:21:20.877Z,6.38
2019-01-08T22:23:49.323Z,6.39
2019-01-08T22:26:17.829Z,6.39
2019-01-08T22:28:46.260Z,6.40
2019-01-08T22:31:14.706Z,6.37
2019-01-08T22:33:43.143Z,6.30
2019-01-08T22:36:12.064Z,6.23
2019-01-08T22:38:40.581Z,6.25
2019-01-08T22:41:09.438Z,6.24
2019-01-08T22:43:38.767Z,6.21
2019-01-08T22:46:07.255Z,6.15
2019-01-08T22:48:35.928Z,6.13
2019-01-08T22:51:04.486Z,6.13
2019-01-08T22:53:33.240Z,6.10
2019-01-08T22:56:01.731Z,6.10
2019-01-08T22:58:30.637Z,6.08
2019-01-08T23:01:01.380Z,6.08
2019-01-08T23:03:30.330Z,6.08
2019-01-08T23:05:58.824Z,6.08
2019-01-08T23:08:27.350Z,6.08
2019-01-08T23:10:55.935Z,6.08
2019-01-08T23:13:24.469Z,6.09
2019-01-08T23:15:52.969Z,6.12
2019-01-08T23:18:22.459Z,6.13
2019-01-08T23:20:51.220Z,6.18
2019-01-08T23:23:19.869Z,6.19
2019-01-08T23:25:48.403Z,6.20
2019-01-08T23:28:17.004Z,6.19
2019-01-08T23:30:45.709Z,6.19
2019-01-08T23:33:14.350Z,6.22
2019-01-08T23:35:42.939Z,6.22
2019-01-08T23:38:11.441Z,6.24
2019-01-08T23:40:40.006Z,6.22
2019-01-08T23:43:08.596Z,6.24
2019-01-08T23:45:37.200Z,6.25
2019-01-08T23:48:05.798Z,6.22
2019-01-08T23:50:34.383Z,6.20
2019-01-08T23:53:07.746Z,6.18
2019-01-08T23:55:39.835Z,6.15
2019-01-08T23:58:11.334Z,6.13
